sensor_id;sensor_type;location;lat;lon;timestamp;pressure;altitude;pressure_sealevel;temperature;humidity
60099;BME280;62818;49.394;8.686;2023-07-31T00:00:01;100343.34;;;18.71;82.03
60099;BME280;62818;49.394;8.686;2023-07-31T00:01:02;100336.25;;;18.77;82.54
60099;BME280;62818;49.394;8.686;2023-07-31T00:02:03;100336.78;;;18.67;83.51
60099;BME280;62818;49.394;8.686;2023-07-31T00:03:03;100340.59;;;18.60;83.01
60099;BME280;62818;49.394;8.686;2023-07-31T00:04:04;100331.53;;;18.61;82.92
60099;BME280;62818;49.394;8.686;2023-07-31T00:05:05;100330.44;;;18.50;83.63
60099;BME280;62818;49.394;8.686;2023-07-31T00:06:05;100332.06;;;18.51;83.57
60099;BME280;62818;49.394;8.686;2023-07-31T00:07:06;100337.53;;;18.74;84.26
60099;BME280;62818;49.394;8.686;2023-07-31T00:08:06;100333.97;;;18.62;83.42
60099;BME280;62818;49.394;8.686;2023-07-31T00:09:07;100336.97;;;18.54;84.93
60099;BME280;62818;49.394;8.686;2023-07-31T00:10:08;100339.09;;;18.52;84.35
60099;BME280;62818;49.394;8.686;2023-07-31T00:11:08;100335.91;;;18.55;84.51
60099;BME280;62818;49.394;8.686;2023-07-31T00:12:09;100336.25;;;18.47;84.33
60099;BME280;62818;49.394;8.686;2023-07-31T00:13:09;100337.53;;;18.44;84.08
60099;BME280;62818;49.394;8.686;2023-07-31T00:14:10;100329.69;;;18.43;84.79
60099;BME280;62818;49.394;8.686;2023-07-31T00:15:11;100332.16;;;18.44;85.21
60099;BME280;62818;49.394;8.686;2023-07-31T00:16:13;100330.13;;;18.40;85.53
60099;BME280;62818;49.394;8.686;2023-07-31T00:17:13;100333.56;;;18.47;84.72
60099;BME280;62818;49.394;8.686;2023-07-31T00:18:15;100332.16;;;18.44;84.62
60099;BME280;62818;49.394;8.686;2023-07-31T00:19:15;100331.28;;;18.44;84.41
60099;BME280;62818;49.394;8.686;2023-07-31T00:20:16;100334.75;;;18.33;85.97
60099;BME280;62818;49.394;8.686;2023-07-31T00:21:16;100335.97;;;18.37;85.60
60099;BME280;62818;49.394;8.686;2023-07-31T00:22:17;100338.34;;;18.45;85.25
60099;BME280;62818;49.394;8.686;2023-07-31T00:23:17;100335.22;;;18.48;85.72
60099;BME280;62818;49.394;8.686;2023-07-31T00:24:18;100332.81;;;18.40;86.41
60099;BME280;62818;49.394;8.686;2023-07-31T00:25:18;100330.28;;;18.27;86.33
60099;BME280;62818;49.394;8.686;2023-07-31T00:26:18;100326.09;;;18.31;86.23
60099;BME280;62818;49.394;8.686;2023-07-31T00:27:19;100321.88;;;18.41;85.79
60099;BME280;62818;49.394;8.686;2023-07-31T00:28:19;100328.03;;;18.42;85.00
60099;BME280;62818;49.394;8.686;2023-07-31T00:29:20;100333.56;;;18.29;86.34
60099;BME280;62818;49.394;8.686;2023-07-31T00:30:20;100325.06;;;18.32;85.14
60099;BME280;62818;49.394;8.686;2023-07-31T00:31:22;100321.94;;;18.35;86.53
60099;BME280;62818;49.394;8.686;2023-07-31T00:32:23;100324.63;;;18.35;86.36
60099;BME280;62818;49.394;8.686;2023-07-31T00:33:23;100328.34;;;18.34;85.95
60099;BME280;62818;49.394;8.686;2023-07-31T00:34:23;100322.41;;;18.32;85.38
60099;BME280;62818;49.394;8.686;2023-07-31T00:35:24;100324.00;;;18.33;85.88
60099;BME280;62818;49.394;8.686;2023-07-31T00:36:24;100319.72;;;18.32;86.82
60099;BME280;62818;49.394;8.686;2023-07-31T00:37:25;100320.28;;;18.34;85.82
60099;BME280;62818;49.394;8.686;2023-07-31T00:38:25;100327.31;;;18.35;85.47
60099;BME280;62818;49.394;8.686;2023-07-31T00:39:26;100318.94;;;18.43;86.34
60099;BME280;62818;49.394;8.686;2023-07-31T00:40:26;100329.09;;;18.41;85.64
60099;BME280;62818;49.394;8.686;2023-07-31T00:41:27;100321.31;;;18.33;85.80
60099;BME280;62818;49.394;8.686;2023-07-31T00:42:27;100320.28;;;18.34;85.40
60099;BME280;62818;49.394;8.686;2023-07-31T00:43:28;100324.00;;;18.33;85.12
60099;BME280;62818;49.394;8.686;2023-07-31T00:44:28;100332.00;;;18.39;84.73
60099;BME280;62818;49.394;8.686;2023-07-31T00:45:29;100321.47;;;18.38;84.63
60099;BME280;62818;49.394;8.686;2023-07-31T00:46:30;100322.16;;;18.33;85.32
60099;BME280;62818;49.394;8.686;2023-07-31T00:47:31;100317.47;;;18.29;86.17
60099;BME280;62818;49.394;8.686;2023-07-31T00:48:32;100321.88;;;18.23;85.49
60099;BME280;62818;49.394;8.686;2023-07-31T00:49:33;100319.94;;;18.30;86.00
60099;BME280;62818;49.394;8.686;2023-07-31T00:50:34;100319.63;;;18.38;86.53
60099;BME280;62818;49.394;8.686;2023-07-31T00:51:35;100319.75;;;18.43;85.91
60099;BME280;62818;49.394;8.686;2023-07-31T00:52:36;100310.84;;;18.31;86.03
60099;BME280;62818;49.394;8.686;2023-07-31T00:53:37;100307.22;;;18.26;86.67
60099;BME280;62818;49.394;8.686;2023-07-31T00:54:39;100322.03;;;18.28;86.39
60099;BME280;62818;49.394;8.686;2023-07-31T00:55:40;100320.47;;;18.21;85.99
60099;BME280;62818;49.394;8.686;2023-07-31T00:56:40;100314.59;;;18.42;85.94
60099;BME280;62818;49.394;8.686;2023-07-31T00:57:45;100318.53;;;18.46;85.79
60099;BME280;62818;49.394;8.686;2023-07-31T00:58:46;100315.97;;;18.33;85.74
60099;BME280;62818;49.394;8.686;2023-07-31T00:59:46;100318.81;;;18.20;86.34
60099;BME280;62818;49.394;8.686;2023-07-31T01:00:47;100304.97;;;18.23;86.72
60099;BME280;62818;49.394;8.686;2023-07-31T01:01:47;100313.16;;;18.28;87.12
60099;BME280;62818;49.394;8.686;2023-07-31T01:02:49;100308.91;;;18.20;86.07
60099;BME280;62818;49.394;8.686;2023-07-31T01:03:52;100313.38;;;18.26;86.08
60099;BME280;62818;49.394;8.686;2023-07-31T01:04:56;100311.66;;;18.32;86.38
60099;BME280;62818;49.394;8.686;2023-07-31T01:07:42;100302.72;;;18.20;87.02
60099;BME280;62818;49.394;8.686;2023-07-31T01:10:26;100304.13;;;18.22;85.15
60099;BME280;62818;49.394;8.686;2023-07-31T01:11:41;100300.03;;;18.20;86.77
60099;BME280;62818;49.394;8.686;2023-07-31T01:12:48;100301.09;;;18.19;87.72
60099;BME280;62818;49.394;8.686;2023-07-31T01:13:51;100301.09;;;18.19;87.11
60099;BME280;62818;49.394;8.686;2023-07-31T01:15:06;100300.28;;;18.18;87.53
60099;BME280;62818;49.394;8.686;2023-07-31T01:16:11;100294.91;;;18.18;86.69
60099;BME280;62818;49.394;8.686;2023-07-31T01:17:12;100297.59;;;18.18;86.60
60099;BME280;62818;49.394;8.686;2023-07-31T01:18:12;100300.66;;;18.22;85.76
60099;BME280;62818;49.394;8.686;2023-07-31T01:19:14;100303.47;;;18.27;86.11
60099;BME280;62818;49.394;8.686;2023-07-31T01:20:23;100302.19;;;18.29;85.92
60099;BME280;62818;49.394;8.686;2023-07-31T01:26:45;100302.28;;;18.23;86.66
60099;BME280;62818;49.394;8.686;2023-07-31T01:27:55;100297.84;;;18.17;86.00
60099;BME280;62818;49.394;8.686;2023-07-31T01:29:10;100299.44;;;18.18;86.41
60099;BME280;62818;49.394;8.686;2023-07-31T01:30:25;100288.72;;;18.18;87.55
60099;BME280;62818;49.394;8.686;2023-07-31T01:31:30;100290.81;;;18.16;87.79
60099;BME280;62818;49.394;8.686;2023-07-31T01:32:32;100296.19;;;18.16;86.85
60099;BME280;62818;49.394;8.686;2023-07-31T01:33:35;100288.44;;;18.26;85.42
60099;BME280;62818;49.394;8.686;2023-07-31T01:34:37;100289.19;;;18.15;86.48
60099;BME280;62818;49.394;8.686;2023-07-31T01:35:43;100284.28;;;18.12;87.38
60099;BME280;62818;49.394;8.686;2023-07-31T01:36:47;100283.25;;;18.13;87.28
60099;BME280;62818;49.394;8.686;2023-07-31T01:37:47;100281.72;;;18.17;88.02
60099;BME280;62818;49.394;8.686;2023-07-31T01:38:48;100280.50;;;18.31;86.29
60099;BME280;62818;49.394;8.686;2023-07-31T01:39:49;100273.13;;;18.26;85.70
60099;BME280;62818;49.394;8.686;2023-07-31T01:40:52;100274.88;;;18.21;86.88
60099;BME280;62818;49.394;8.686;2023-07-31T01:41:53;100273.59;;;18.23;86.37
60099;BME280;62818;49.394;8.686;2023-07-31T01:42:54;100275.34;;;18.29;85.94
60099;BME280;62818;49.394;8.686;2023-07-31T01:43:54;100272.78;;;18.23;86.70
60099;BME280;62818;49.394;8.686;2023-07-31T01:44:55;100271.75;;;18.24;86.31
60099;BME280;62818;49.394;8.686;2023-07-31T01:45:55;100275.44;;;18.23;86.37
60099;BME280;62818;49.394;8.686;2023-07-31T01:46:56;100276.03;;;18.25;86.57
60099;BME280;62818;49.394;8.686;2023-07-31T01:47:56;100274.81;;;18.39;86.22
60099;BME280;62818;49.394;8.686;2023-07-31T01:48:57;100276.19;;;18.30;86.33
60099;BME280;62818;49.394;8.686;2023-07-31T01:49:57;100265.53;;;18.23;85.94
60099;BME280;62818;49.394;8.686;2023-07-31T01:51:00;100270.75;;;18.18;86.19
60099;BME280;62818;49.394;8.686;2023-07-31T01:52:01;100268.81;;;18.25;84.41
60099;BME280;62818;49.394;8.686;2023-07-31T01:53:01;100271.25;;;18.27;85.16
60099;BME280;62818;49.394;8.686;2023-07-31T01:54:02;100272.19;;;18.21;85.45
60099;BME280;62818;49.394;8.686;2023-07-31T01:55:03;100271.25;;;18.27;84.60
60099;BME280;62818;49.394;8.686;2023-07-31T01:56:04;100280.03;;;18.34;85.16
60099;BME280;62818;49.394;8.686;2023-07-31T01:57:05;100274.53;;;18.29;84.34
60099;BME280;62818;49.394;8.686;2023-07-31T01:58:06;100273.75;;;18.28;85.16
60099;BME280;62818;49.394;8.686;2023-07-31T01:59:06;100270.97;;;18.35;86.17
60099;BME280;62818;49.394;8.686;2023-07-31T02:00:07;100270.81;;;18.30;85.19
60099;BME280;62818;49.394;8.686;2023-07-31T02:01:08;100266.97;;;18.37;84.88
60099;BME280;62818;49.394;8.686;2023-07-31T02:02:09;100272.72;;;18.41;84.99
60099;BME280;62818;49.394;8.686;2023-07-31T02:03:09;100275.81;;;18.26;86.30
60099;BME280;62818;49.394;8.686;2023-07-31T02:04:09;100263.69;;;18.24;85.60
60099;BME280;62818;49.394;8.686;2023-07-31T02:05:10;100266.97;;;18.37;85.95
60099;BME280;62818;49.394;8.686;2023-07-31T02:06:11;100265.44;;;18.30;84.95
60099;BME280;62818;49.394;8.686;2023-07-31T02:07:11;100270.81;;;18.30;84.32
60099;BME280;62818;49.394;8.686;2023-07-31T02:08:12;100273.16;;;18.38;84.90
60099;BME280;62818;49.394;8.686;2023-07-31T02:09:12;100273.16;;;18.38;83.82
60099;BME280;62818;49.394;8.686;2023-07-31T02:10:13;100270.63;;;18.43;84.38
60099;BME280;62818;49.394;8.686;2023-07-31T02:11:13;100278.03;;;18.47;82.73
60099;BME280;62818;49.394;8.686;2023-07-31T02:12:14;100267.53;;;18.46;83.13
60099;BME280;62818;49.394;8.686;2023-07-31T02:13:14;100270.34;;;18.33;84.99
60099;BME280;62818;49.394;8.686;2023-07-31T02:14:15;100262.63;;;18.25;85.66
60099;BME280;62818;49.394;8.686;2023-07-31T02:15:16;100269.91;;;18.36;85.32
60099;BME280;62818;49.394;8.686;2023-07-31T02:16:16;100268.63;;;18.38;84.10
60099;BME280;62818;49.394;8.686;2023-07-31T02:17:16;100263.09;;;18.22;84.13
60099;BME280;62818;49.394;8.686;2023-07-31T02:18:17;100257.00;;;18.15;85.44
60099;BME280;62818;49.394;8.686;2023-07-31T02:19:17;100256.09;;;18.21;85.11
60099;BME280;62818;49.394;8.686;2023-07-31T02:20:18;100259.69;;;18.26;85.09
60099;BME280;62818;49.394;8.686;2023-07-31T02:21:18;100248.88;;;18.33;85.37
60099;BME280;62818;49.394;8.686;2023-07-31T02:22:19;100252.28;;;18.28;84.28
60099;BME280;62818;49.394;8.686;2023-07-31T02:23:20;100257.06;;;18.38;85.42
60099;BME280;62818;49.394;8.686;2023-07-31T02:24:20;100244.91;;;18.24;84.60
60099;BME280;62818;49.394;8.686;2023-07-31T02:25:21;100250.13;;;18.19;84.46
60099;BME280;62818;49.394;8.686;2023-07-31T02:26:21;100253.50;;;18.14;85.10
60099;BME280;62818;49.394;8.686;2023-07-31T02:27:22;100252.00;;;18.18;84.93
60099;BME280;62818;49.394;8.686;2023-07-31T02:28:24;100242.53;;;18.16;85.16
60099;BME280;62818;49.394;8.686;2023-07-31T02:29:24;100245.78;;;18.18;85.38
60099;BME280;62818;49.394;8.686;2023-07-31T02:30:25;100239.97;;;18.21;85.83
60099;BME280;62818;49.394;8.686;2023-07-31T02:31:25;100228.72;;;18.30;85.35
60099;BME280;62818;49.394;8.686;2023-07-31T02:32:26;100243.84;;;18.25;85.33
60099;BME280;62818;49.394;8.686;2023-07-31T02:33:26;100241.50;;;18.17;86.30
60099;BME280;62818;49.394;8.686;2023-07-31T02:34:27;100238.81;;;18.17;85.68
60099;BME280;62818;49.394;8.686;2023-07-31T02:35:27;100235.78;;;18.25;85.34
60099;BME280;62818;49.394;8.686;2023-07-31T02:36:28;100243.50;;;18.21;84.85
60099;BME280;62818;49.394;8.686;2023-07-31T02:37:28;100234.28;;;18.29;85.39
60099;BME280;62818;49.394;8.686;2023-07-31T02:38:29;100237.31;;;18.21;86.15
60099;BME280;62818;49.394;8.686;2023-07-31T02:39:29;100235.78;;;18.25;85.11
60099;BME280;62818;49.394;8.686;2023-07-31T02:40:30;100233.69;;;18.27;85.96
60099;BME280;62818;49.394;8.686;2023-07-31T02:41:30;100234.19;;;18.24;85.02
60099;BME280;62818;49.394;8.686;2023-07-31T02:42:31;100237.44;;;18.26;85.52
60099;BME280;62818;49.394;8.686;2023-07-31T02:43:31;100236.53;;;18.32;86.06
60099;BME280;62818;49.394;8.686;2023-07-31T02:44:32;100228.72;;;18.30;85.74
60099;BME280;62818;49.394;8.686;2023-07-31T02:45:32;100229.97;;;18.28;85.53
60099;BME280;62818;49.394;8.686;2023-07-31T02:46:33;100227.97;;;18.23;85.58
60099;BME280;62818;49.394;8.686;2023-07-31T02:47:34;100237.88;;;18.23;85.72
60099;BME280;62818;49.394;8.686;2023-07-31T02:48:34;100236.56;;;18.14;85.78
60099;BME280;62818;49.394;8.686;2023-07-31T02:49:35;100231.78;;;18.16;85.73
60099;BME280;62818;49.394;8.686;2023-07-31T02:50:35;100234.53;;;18.27;86.63
60099;BME280;62818;49.394;8.686;2023-07-31T02:51:38;100231.06;;;18.09;87.68
60099;BME280;62818;49.394;8.686;2023-07-31T02:52:39;100232.06;;;18.26;88.55
60099;BME280;62818;49.394;8.686;2023-07-31T02:53:39;100236.25;;;18.52;87.34
60099;BME280;62818;49.394;8.686;2023-07-31T02:54:40;100233.44;;;18.46;86.42
60099;BME280;62818;49.394;8.686;2023-07-31T02:55:40;100240.63;;;18.34;86.63
60099;BME280;62818;49.394;8.686;2023-07-31T02:56:41;100235.22;;;18.23;87.63
60099;BME280;62818;49.394;8.686;2023-07-31T02:57:42;100239.41;;;18.19;86.66
60099;BME280;62818;49.394;8.686;2023-07-31T02:58:42;100236.72;;;18.19;87.84
60099;BME280;62818;49.394;8.686;2023-07-31T02:59:42;100237.16;;;18.16;88.05
60099;BME280;62818;49.394;8.686;2023-07-31T03:00:44;100248.47;;;18.18;87.50
60099;BME280;62818;49.394;8.686;2023-07-31T03:01:45;100239.72;;;18.11;88.96
60099;BME280;62818;49.394;8.686;2023-07-31T03:02:45;100233.53;;;18.10;87.87
60099;BME280;62818;49.394;8.686;2023-07-31T03:03:46;100227.34;;;18.10;88.73
60099;BME280;62818;49.394;8.686;2023-07-31T03:04:46;100233.06;;;18.13;89.29
60099;BME280;62818;49.394;8.686;2023-07-31T03:05:47;100236.72;;;18.19;89.07
60099;BME280;62818;49.394;8.686;2023-07-31T03:06:47;100240.91;;;18.15;88.73
60099;BME280;62818;49.394;8.686;2023-07-31T03:07:48;100229.88;;;18.05;88.52
60099;BME280;62818;49.394;8.686;2023-07-31T03:08:48;100235.72;;;18.02;89.25
60099;BME280;62818;49.394;8.686;2023-07-31T03:09:49;100233.94;;;17.96;89.32
60099;BME280;62818;49.394;8.686;2023-07-31T03:10:49;100230.44;;;17.95;90.32
60099;BME280;62818;49.394;8.686;2023-07-31T03:11:50;100232.53;;;17.93;89.43
60099;BME280;62818;49.394;8.686;2023-07-31T03:12:50;100231.72;;;17.93;88.99
60099;BME280;62818;49.394;8.686;2023-07-31T03:13:51;100232.97;;;17.90;89.78
60099;BME280;62818;49.394;8.686;2023-07-31T03:14:52;100231.25;;;17.96;90.85
60099;BME280;62818;49.394;8.686;2023-07-31T03:15:52;100229.09;;;18.04;90.39
60099;BME280;62818;49.394;8.686;2023-07-31T03:16:53;100233.47;;;17.99;89.46
60099;BME280;62818;49.394;8.686;2023-07-31T03:17:54;100230.06;;;17.92;89.66
60099;BME280;62818;49.394;8.686;2023-07-31T03:18:54;100236.03;;;17.94;89.38
60099;BME280;62818;49.394;8.686;2023-07-31T03:19:55;100229.47;;;17.90;90.06
60099;BME280;62818;49.394;8.686;2023-07-31T03:20:55;100231.47;;;17.94;89.86
60099;BME280;62818;49.394;8.686;2023-07-31T03:21:55;100228.22;;;17.92;90.98
60099;BME280;62818;49.394;8.686;2023-07-31T03:22:56;100237.66;;;17.95;90.63
60099;BME280;62818;49.394;8.686;2023-07-31T03:23:56;100233.16;;;18.07;90.51
60099;BME280;62818;49.394;8.686;2023-07-31T03:24:57;100229.97;;;17.98;90.32
60099;BME280;62818;49.394;8.686;2023-07-31T03:25:58;100231.72;;;17.93;90.77
60099;BME280;62818;49.394;8.686;2023-07-31T03:27:00;100235.44;;;17.92;90.35
60099;BME280;62818;49.394;8.686;2023-07-31T03:28:00;100235.00;;;17.95;90.29
60099;BME280;62818;49.394;8.686;2023-07-31T03:29:01;100229.47;;;17.90;90.64
60099;BME280;62818;49.394;8.686;2023-07-31T03:30:02;100232.25;;;17.83;91.91
60099;BME280;62818;49.394;8.686;2023-07-31T03:31:03;100232.25;;;17.83;90.51
60099;BME280;62818;49.394;8.686;2023-07-31T03:32:04;100236.78;;;17.83;90.41
60099;BME280;62818;49.394;8.686;2023-07-31T03:33:05;100238.69;;;17.94;90.38
60099;BME280;62818;49.394;8.686;2023-07-31T03:34:06;100235.44;;;17.92;91.37
60099;BME280;62818;49.394;8.686;2023-07-31T03:35:06;100225.53;;;17.92;90.78
60099;BME280;62818;49.394;8.686;2023-07-31T03:36:07;100230.06;;;17.92;90.58
60099;BME280;62818;49.394;8.686;2023-07-31T03:37:07;100231.31;;;17.89;91.48
60099;BME280;62818;49.394;8.686;2023-07-31T03:38:09;100223.53;;;17.88;91.36
60099;BME280;62818;49.394;8.686;2023-07-31T03:39:09;100230.25;;;17.78;91.48
60099;BME280;62818;49.394;8.686;2023-07-31T03:40:11;100226.88;;;17.83;91.66
60099;BME280;62818;49.394;8.686;2023-07-31T03:41:11;100236.19;;;17.81;91.44
60099;BME280;62818;49.394;8.686;2023-07-31T03:42:12;100221.88;;;17.87;91.42
60099;BME280;62818;49.394;8.686;2023-07-31T03:43:12;100229.78;;;17.82;91.52
60099;BME280;62818;49.394;8.686;2023-07-31T03:44:13;100222.19;;;17.78;91.98
60099;BME280;62818;49.394;8.686;2023-07-31T03:45:13;100228.63;;;17.77;92.00
60099;BME280;62818;49.394;8.686;2023-07-31T03:46:14;100225.25;;;17.82;92.83
60099;BME280;62818;49.394;8.686;2023-07-31T03:47:14;100230.72;;;17.75;92.17
60099;BME280;62818;49.394;8.686;2023-07-31T03:48:15;100227.47;;;17.85;91.57
60099;BME280;62818;49.394;8.686;2023-07-31T03:49:16;100231.13;;;17.91;91.33
60099;BME280;62818;49.394;8.686;2023-07-31T03:50:17;100224.88;;;17.78;92.40
60099;BME280;62818;49.394;8.686;2023-07-31T03:51:17;100233.81;;;17.91;92.63
60099;BME280;62818;49.394;8.686;2023-07-31T03:52:18;100230.16;;;17.85;91.57
60099;BME280;62818;49.394;8.686;2023-07-31T03:53:18;100230.25;;;17.78;92.82
60099;BME280;62818;49.394;8.686;2023-07-31T03:54:19;100225.78;;;17.72;92.36
60099;BME280;62818;49.394;8.686;2023-07-31T03:55:19;100217.91;;;17.77;91.83
60099;BME280;62818;49.394;8.686;2023-07-31T03:56:21;100225.88;;;17.66;93.30
60099;BME280;62818;49.394;8.686;2023-07-31T03:57:22;100215.81;;;17.61;94.08
60099;BME280;62818;49.394;8.686;2023-07-31T03:58:23;100221.34;;;17.66;92.78
60099;BME280;62818;49.394;8.686;2023-07-31T03:59:23;100220.50;;;17.66;93.59
60099;BME280;62818;49.394;8.686;2023-07-31T04:00:24;100227.03;;;17.70;92.58
60099;BME280;62818;49.394;8.686;2023-07-31T04:01:24;100227.88;;;17.70;92.70
60099;BME280;62818;49.394;8.686;2023-07-31T04:02:25;100226.53;;;17.80;93.44
60099;BME280;62818;49.394;8.686;2023-07-31T04:03:25;100230.56;;;17.70;92.41
60099;BME280;62818;49.394;8.686;2023-07-31T04:04:26;100232.34;;;17.58;93.37
60099;BME280;62818;49.394;8.686;2023-07-31T04:05:26;100232.13;;;17.60;94.12
60099;BME280;62818;49.394;8.686;2023-07-31T04:06:26;100229.50;;;17.71;94.92
60099;BME280;62818;49.394;8.686;2023-07-31T04:07:27;100223.41;;;17.64;93.67
60099;BME280;62818;49.394;8.686;2023-07-31T04:08:28;100222.78;;;17.81;93.62
60099;BME280;62818;49.394;8.686;2023-07-31T04:09:28;100232.00;;;17.85;92.85
60099;BME280;62818;49.394;8.686;2023-07-31T04:10:29;100224.88;;;17.78;92.52
60099;BME280;62818;49.394;8.686;2023-07-31T04:11:30;100236.94;;;17.69;92.86
60099;BME280;62818;49.394;8.686;2023-07-31T04:12:30;100225.63;;;17.67;93.48
60099;BME280;62818;49.394;8.686;2023-07-31T04:13:31;100222.50;;;17.70;94.10
60099;BME280;62818;49.394;8.686;2023-07-31T04:14:31;100225.94;;;17.59;93.13
60099;BME280;62818;49.394;8.686;2023-07-31T04:15:32;100226.84;;;17.53;93.91
60099;BME280;62818;49.394;8.686;2023-07-31T04:16:32;100228.91;;;17.51;94.19
60099;BME280;62818;49.394;8.686;2023-07-31T04:17:33;100231.75;;;17.56;93.94
60099;BME280;62818;49.394;8.686;2023-07-31T04:18:33;100228.91;;;17.51;93.93
60099;BME280;62818;49.394;8.686;2023-07-31T04:19:34;100230.84;;;17.44;94.51
60099;BME280;62818;49.394;8.686;2023-07-31T04:20:34;100225.25;;;17.46;94.62
60099;BME280;62818;49.394;8.686;2023-07-31T04:21:34;100226.06;;;17.46;94.15
60099;BME280;62818;49.394;8.686;2023-07-31T04:22:35;100233.47;;;17.51;93.82
60099;BME280;62818;49.394;8.686;2023-07-31T04:23:35;100226.31;;;17.63;93.27
60099;BME280;62818;49.394;8.686;2023-07-31T04:24:36;100230.56;;;17.52;93.23
60099;BME280;62818;49.394;8.686;2023-07-31T04:25:36;100228.81;;;17.40;94.38
60099;BME280;62818;49.394;8.686;2023-07-31T04:26:37;100220.88;;;17.51;94.97
60099;BME280;62818;49.394;8.686;2023-07-31T04:27:37;100222.28;;;17.54;94.35
60099;BME280;62818;49.394;8.686;2023-07-31T04:28:38;100222.59;;;17.64;93.88
60099;BME280;62818;49.394;8.686;2023-07-31T04:29:39;100227.13;;;17.63;93.69
60099;BME280;62818;49.394;8.686;2023-07-31T04:30:42;100223.56;;;17.51;95.31
60099;BME280;62818;49.394;8.686;2023-07-31T04:31:42;100230.56;;;17.52;94.89
60099;BME280;62818;49.394;8.686;2023-07-31T04:32:43;100227.28;;;17.68;94.83
60099;BME280;62818;49.394;8.686;2023-07-31T04:33:43;100221.34;;;17.66;93.36
60099;BME280;62818;49.394;8.686;2023-07-31T04:34:44;100223.13;;;17.54;95.37
60099;BME280;62818;49.394;8.686;2023-07-31T04:35:54;100216.56;;;17.50;94.69
60099;BME280;62818;49.394;8.686;2023-07-31T04:36:54;100222.75;;;17.51;94.64
60099;BME280;62818;49.394;8.686;2023-07-31T04:37:55;100222.28;;;17.54;96.03
60099;BME280;62818;49.394;8.686;2023-07-31T04:38:55;100219.44;;;17.67;94.39
60099;BME280;62818;49.394;8.686;2023-07-31T04:39:56;100212.16;;;17.74;95.01
60099;BME280;62818;49.394;8.686;2023-07-31T04:40:57;100217.91;;;17.77;94.90
60099;BME280;62818;49.394;8.686;2023-07-31T04:41:57;100221.59;;;17.76;94.99
60099;BME280;62818;49.394;8.686;2023-07-31T04:42:58;100221.53;;;17.65;95.38
60099;BME280;62818;49.394;8.686;2023-07-31T04:43:58;100220.66;;;17.53;95.09
60099;BME280;62818;49.394;8.686;2023-07-31T04:44:59;100218.19;;;17.51;95.50
60099;BME280;62818;49.394;8.686;2023-07-31T04:45:59;100227.22;;;17.57;95.24
60099;BME280;62818;49.394;8.686;2023-07-31T04:46:59;100223.84;;;17.61;95.69
60099;BME280;62818;49.394;8.686;2023-07-31T04:48:00;100212.53;;;17.59;95.38
60099;BME280;62818;49.394;8.686;2023-07-31T04:49:00;100215.38;;;17.64;94.38
60099;BME280;62818;49.394;8.686;2023-07-31T04:50:01;100221.69;;;17.52;96.71
60099;BME280;62818;49.394;8.686;2023-07-31T04:51:01;100201.72;;;17.48;96.73
60099;BME280;62818;49.394;8.686;2023-07-31T04:52:02;100207.84;;;17.55;95.73
60099;BME280;62818;49.394;8.686;2023-07-31T04:53:03;100213.03;;;17.50;96.83
60099;BME280;62818;49.394;8.686;2023-07-31T04:54:04;100205.06;;;17.43;96.89
60099;BME280;62818;49.394;8.686;2023-07-31T04:55:04;100203.31;;;17.55;96.60
60099;BME280;62818;49.394;8.686;2023-07-31T04:56:05;100207.41;;;17.58;96.11
60099;BME280;62818;49.394;8.686;2023-07-31T04:57:05;100210.78;;;17.53;95.07
60099;BME280;62818;49.394;8.686;2023-07-31T04:58:06;100218.19;;;17.51;95.04
60099;BME280;62818;49.394;8.686;2023-07-31T04:59:07;100217.31;;;17.57;95.16
60099;BME280;62818;49.394;8.686;2023-07-31T05:00:08;100211.41;;;17.49;95.65
60099;BME280;62818;49.394;8.686;2023-07-31T05:01:08;100215.81;;;17.61;95.38
60099;BME280;62818;49.394;8.686;2023-07-31T05:02:09;100216.13;;;17.53;95.65
60099;BME280;62818;49.394;8.686;2023-07-31T05:03:12;100208.69;;;17.55;94.79
60099;BME280;62818;49.394;8.686;2023-07-31T05:04:13;100211.13;;;17.57;96.41
60099;BME280;62818;49.394;8.686;2023-07-31T05:05:14;100213.88;;;17.50;95.03
60099;BME280;62818;49.394;8.686;2023-07-31T05:06:15;100214.88;;;17.49;96.99
60099;BME280;62818;49.394;8.686;2023-07-31T05:07:15;100211.50;;;17.60;95.16
60099;BME280;62818;49.394;8.686;2023-07-31T05:08:17;100211.50;;;17.60;96.31
60099;BME280;62818;49.394;8.686;2023-07-31T05:09:20;100211.63;;;17.65;96.30
60099;BME280;62818;49.394;8.686;2023-07-31T05:10:21;100208.53;;;17.50;97.53
60099;BME280;62818;49.394;8.686;2023-07-31T05:11:21;100214.38;;;17.77;97.15
60099;BME280;62818;49.394;8.686;2023-07-31T05:12:22;100214.16;;;17.78;95.45
60099;BME280;62818;49.394;8.686;2023-07-31T05:13:22;100214.31;;;17.65;95.24
60099;BME280;62818;49.394;8.686;2023-07-31T05:14:23;100208.44;;;17.57;95.23
60099;BME280;62818;49.394;8.686;2023-07-31T05:15:23;100217.31;;;17.57;96.03
60099;BME280;62818;49.394;8.686;2023-07-31T05:16:24;100210.91;;;17.58;96.52
60099;BME280;62818;49.394;8.686;2023-07-31T05:17:24;100218.19;;;17.69;96.09
60099;BME280;62818;49.394;8.686;2023-07-31T05:18:25;100213.88;;;17.68;96.30
60099;BME280;62818;49.394;8.686;2023-07-31T05:19:25;100212.69;;;17.64;94.39
60099;BME280;62818;49.394;8.686;2023-07-31T05:20:25;100209.88;;;17.59;95.85
60099;BME280;62818;49.394;8.686;2023-07-31T05:21:27;100209.19;;;17.64;96.09
60099;BME280;62818;49.394;8.686;2023-07-31T05:22:28;100205.53;;;17.58;96.61
60099;BME280;62818;49.394;8.686;2023-07-31T05:23:28;100204.13;;;17.56;97.17
60099;BME280;62818;49.394;8.686;2023-07-31T05:24:29;100203.69;;;17.59;96.17
60099;BME280;62818;49.394;8.686;2023-07-31T05:25:30;100204.50;;;17.59;96.14
60099;BME280;62818;49.394;8.686;2023-07-31T05:26:30;100203.16;;;17.68;95.99
60099;BME280;62818;49.394;8.686;2023-07-31T05:27:31;100204.66;;;17.64;98.28